createdAt,value
2023-05-06T00:01:05.002Z,18.73
2023-05-06T00:03:31.870Z,18.60
2023-05-06T00:05:58.668Z,18.51
2023-05-06T00:08:26.129Z,18.42
2023-05-06T00:10:52.716Z,18.56
2023-05-06T00:13:19.311Z,18.48
2023-05-06T00:15:45.896Z,18.50
2023-05-06T00:18:12.578Z,18.45
2023-05-06T00:20:39.235Z,18.32
2023-05-06T00:23:05.921Z,18.35
2023-05-06T00:25:32.585Z,18.19
2023-05-06T00:27:59.269Z,17.98
2023-05-06T00:30:26.007Z,17.95
2023-05-06T00:32:54.607Z,18.00
2023-05-06T00:35:21.290Z,18.11
2023-05-06T00:37:56.987Z,18.00
2023-05-06T00:40:23.730Z,18.04
2023-05-06T00:42:50.386Z,17.88
2023-05-06T00:45:16.952Z,17.70
2023-05-06T00:47:44.819Z,17.54
2023-05-06T00:50:11.752Z,17.44
2023-05-06T00:52:38.555Z,17.44
2023-05-06T00:55:06.024Z,17.33
2023-05-06T00:57:32.781Z,17.43
2023-05-06T00:59:59.473Z,17.34
2023-05-06T01:02:30.739Z,17.40
2023-05-06T01:05:07.564Z,17.21
2023-05-06T01:08:00.948Z,17.16
2023-05-06T01:10:42.287Z,17.05
2023-05-06T01:13:18.530Z,16.83
2023-05-06T01:15:47.627Z,17.09
2023-05-06T01:18:17.708Z,17.14
2023-05-06T01:20:48.125Z,16.94
2023-05-06T01:23:14.880Z,16.95
2023-05-06T01:25:41.721Z,17.12
2023-05-06T01:28:11.358Z,17.08
2023-05-06T01:31:00.879Z,17.08
2023-05-06T01:33:46.363Z,17.12
2023-05-06T01:36:23.081Z,17.20
2023-05-06T01:39:00.988Z,17.07
2023-05-06T01:41:31.531Z,17.13
2023-05-06T01:44:00.349Z,17.14
2023-05-06T01:46:29.796Z,17.12
2023-05-06T01:49:01.191Z,17.03
2023-05-06T01:51:28.095Z,16.85
2023-05-06T01:53:54.836Z,16.87
2023-05-06T01:56:22.971Z,16.80
2023-05-06T01:58:49.622Z,16.58
2023-05-06T02:01:16.539Z,16.63
2023-05-06T02:03:43.372Z,16.59
2023-05-06T02:06:10.159Z,16.54
2023-05-06T02:08:40.742Z,16.62
2023-05-06T02:11:10.177Z,16.51
2023-05-06T02:13:37.537Z,16.51
2023-05-06T02:16:05.498Z,16.40
2023-05-06T02:18:32.643Z,16.43
2023-05-06T02:20:59.409Z,16.40
2023-05-06T02:23:26.065Z,16.44
2023-05-06T02:25:53.208Z,16.43
2023-05-06T02:28:20.002Z,16.27
2023-05-06T02:30:46.797Z,16.22
2023-05-06T02:33:13.397Z,16.19
2023-05-06T02:35:39.963Z,16.12
2023-05-06T02:38:06.588Z,16.08
2023-05-06T02:40:34.012Z,15.97
2023-05-06T02:43:00.671Z,15.80
2023-05-06T02:45:27.301Z,15.71
2023-05-06T02:47:54.166Z,15.70
2023-05-06T02:50:20.817Z,15.58
2023-05-06T02:52:47.513Z,15.48
2023-05-06T02:55:14.131Z,15.50
2023-05-06T02:57:40.739Z,15.68
2023-05-06T03:00:10.863Z,15.59
2023-05-06T03:02:37.501Z,15.63
2023-05-06T03:05:04.610Z,15.61
2023-05-06T03:07:32.215Z,15.50
2023-05-06T03:09:58.880Z,15.54
2023-05-06T03:12:26.701Z,15.56
2023-05-06T03:14:53.314Z,15.53
2023-05-06T03:17:20.057Z,15.43
2023-05-06T03:19:46.752Z,15.36
2023-05-06T03:22:14.701Z,15.18
2023-05-06T03:24:44.217Z,15.12
2023-05-06T03:27:11.407Z,15.08
2023-05-06T03:29:39.137Z,15.17
2023-05-06T03:32:07.925Z,15.05
2023-05-06T03:34:40.499Z,15.03
2023-05-06T03:37:09.118Z,14.96
2023-05-06T03:39:36.919Z,15.02
2023-05-06T03:42:05.948Z,14.97
2023-05-06T03:44:33.890Z,15.17
2023-05-06T03:47:02.150Z,15.01
2023-05-06T03:49:31.257Z,15.05
2023-05-06T03:51:58.015Z,14.98
2023-05-06T03:54:26.113Z,14.85
2023-05-06T03:56:53.422Z,14.83
2023-05-06T03:59:20.712Z,14.82
2023-05-06T04:01:48.110Z,14.79
2023-05-06T04:04:15.801Z,14.73
2023-05-06T04:06:43.146Z,14.74
2023-05-06T04:09:09.997Z,14.65
2023-05-06T04:11:39.812Z,14.64
2023-05-06T04:14:09.716Z,14.68
2023-05-06T04:16:37.310Z,14.73
2023-05-06T04:19:06.584Z,14.77
2023-05-06T04:21:35.829Z,14.79
2023-05-06T04:24:07.629Z,14.73
2023-05-06T04:26:38.204Z,14.81
2023-05-06T04:29:05.143Z,14.81
2023-05-06T04:31:35.030Z,14.79
2023-05-06T04:34:04.468Z,14.70
2023-05-06T04:36:32.072Z,14.83
2023-05-06T04:39:27.650Z,14.66
2023-05-06T04:41:54.488Z,14.66
2023-05-06T04:44:29.617Z,14.67
2023-05-06T04:46:56.722Z,14.81
2023-05-06T04:49:23.389Z,14.74
2023-05-06T04:51:51.047Z,14.63
2023-05-06T04:54:18.116Z,14.86
2023-05-06T04:56:45.566Z,14.84
2023-05-06T04:59:14.305Z,14.82
2023-05-06T05:01:42.588Z,14.95
2023-05-06T05:04:10.785Z,15.06
2023-05-06T05:06:37.723Z,15.09
2023-05-06T05:09:04.495Z,15.06
2023-05-06T05:11:32.001Z,15.07
2023-05-06T05:14:01.635Z,15.10
2023-05-06T05:16:29.914Z,15.18
2023-05-06T05:18:56.951Z,15.02
2023-05-06T05:21:27.776Z,15.39
2023-05-06T05:23:55.910Z,15.43
2023-05-06T05:26:22.585Z,15.42
2023-05-06T05:28:52.065Z,15.55
2023-05-06T05:31:18.739Z,15.65
2023-05-06T05:33:46.121Z,15.65
2023-05-06T05:36:16.082Z,15.63
2023-05-06T05:38:45.423Z,15.76
2023-05-06T05:41:12.198Z,15.80
2023-05-06T05:43:38.986Z,15.93
2023-05-06T05:46:05.887Z,15.85
2023-05-06T05:48:33.783Z,15.76
2023-05-06T05:51:03.057Z,15.87
2023-05-06T05:53:29.708Z,16.00
2023-05-06T05:55:56.433Z,16.09
2023-05-06T05:58:23.888Z,16.17
2023-05-06T06:00:52.242Z,16.23
2023-05-06T06:03:20.003Z,16.37
2023-05-06T06:05:46.708Z,16.55
2023-05-06T06:08:14.219Z,16.67
2023-05-06T06:10:41.858Z,16.79
2023-05-06T06:13:14.458Z,16.97
2023-05-06T06:15:41.561Z,17.08
2023-05-06T06:18:08.877Z,17.40
2023-05-06T06:20:38.018Z,17.67
2023-05-06T06:23:04.740Z,17.56
2023-05-06T06:25:31.452Z,17.67
2023-05-06T06:27:58.313Z,17.70
2023-05-06T06:30:25.127Z,17.90
2023-05-06T06:32:53.583Z,18.19
2023-05-06T06:35:20.347Z,18.41
2023-05-06T06:37:47.328Z,18.76
2023-05-06T06:40:14.282Z,18.94
2023-05-06T06:42:41.094Z,19.26
2023-05-06T06:45:26.523Z,19.51
2023-05-06T06:47:53.231Z,19.80
2023-05-06T06:50:19.962Z,20.08
2023-05-06T06:52:46.663Z,20.22
2023-05-06T06:55:13.451Z,20.54
2023-05-06T06:57:40.924Z,20.77
2023-05-06T07:00:08.032Z,20.88
2023-05-06T07:02:34.826Z,21.11
2023-05-06T07:05:02.014Z,21.29
2023-05-06T07:07:28.680Z,21.40
2023-05-06T07:09:55.370Z,21.71
2023-05-06T07:12:23.813Z,21.69
2023-05-06T07:14:50.403Z,21.90
2023-05-06T07:17:17.015Z,21.96
2023-05-06T07:19:43.649Z,22.17
2023-05-06T07:22:10.270Z,22.17
2023-05-06T07:24:36.922Z,22.35
2023-05-06T07:27:04.270Z,22.55
2023-05-06T07:29:30.974Z,22.73
2023-05-06T07:31:57.684Z,22.96
2023-05-06T07:34:24.474Z,23.24
2023-05-06T07:36:51.239Z,23.30
2023-05-06T07:39:17.867Z,23.48
2023-05-06T07:41:44.451Z,23.66
2023-05-06T07:44:11.130Z,23.81
2023-05-06T07:46:38.542Z,24.09
2023-05-06T07:49:05.496Z,23.88
2023-05-06T07:51:32.998Z,24.06
2023-05-06T07:53:59.603Z,24.16
2023-05-06T07:56:26.247Z,24.41
2023-05-06T07:58:52.880Z,24.54
2023-05-06T08:01:19.615Z,24.60
2023-05-06T08:03:46.539Z,25.00
2023-05-06T08:06:13.507Z,24.99
2023-05-06T08:08:40.320Z,25.25
2023-05-06T08:11:06.943Z,25.24
2023-05-06T08:13:33.554Z,25.31
2023-05-06T08:16:02.452Z,25.54
2023-05-06T08:18:29.966Z,25.89
2023-05-06T08:20:56.777Z,25.97
2023-05-06T08:23:23.394Z,26.25
2023-05-06T08:25:50.065Z,26.12
2023-05-06T08:28:16.952Z,26.30
2023-05-06T08:30:45.980Z,26.61
2023-05-06T08:33:12.525Z,26.86
2023-05-06T08:35:39.264Z,26.69
2023-05-06T08:38:05.897Z,27.14
2023-05-06T08:40:33.610Z,27.25
2023-05-06T08:43:03.909Z,27.57
2023-05-06T08:45:30.685Z,27.90
2023-05-06T08:47:57.393Z,28.09
2023-05-06T08:50:25.425Z,28.21
2023-05-06T08:52:52.259Z,28.42
2023-05-06T08:55:19.217Z,28.45
2023-05-06T08:57:46.264Z,28.52
2023-05-06T09:00:13.548Z,28.56
2023-05-06T09:02:42.933Z,28.76
2023-05-06T09:05:11.381Z,28.44
2023-05-06T09:07:38.224Z,28.62
2023-05-06T09:10:12.828Z,28.79
2023-05-06T09:12:39.731Z,29.15
2023-05-06T09:15:07.160Z,29.19
2023-05-06T09:17:33.822Z,29.32
2023-05-06T09:20:00.519Z,29.27
2023-05-06T09:22:28.743Z,28.98
2023-05-06T09:25:07.169Z,29.72
2023-05-06T09:27:36.630Z,29.78
2023-05-06T09:30:05.143Z,29.76
2023-05-06T09:32:32.433Z,29.75
2023-05-06T09:34:59.733Z,29.70
2023-05-06T09:37:27.214Z,29.88
2023-05-06T09:39:59.578Z,30.30
2023-05-06T09:42:28.586Z,30.25
2023-05-06T09:44:59.211Z,30.66
2023-05-06T09:47:32.529Z,30.61
2023-05-06T09:49:59.389Z,30.92
2023-05-06T09:52:29.240Z,30.56
2023-05-06T09:54:56.906Z,30.86
2023-05-06T09:57:23.896Z,31.38
2023-05-06T09:59:54.400Z,31.73
2023-05-06T10:02:23.018Z,31.90
2023-05-06T10:04:51.505Z,32.13
2023-05-06T10:07:22.789Z,32.31
2023-05-06T10:09:51.280Z,32.57
2023-05-06T10:12:19.117Z,32.85
2023-05-06T10:14:46.214Z,32.34
2023-05-06T10:17:13.737Z,31.98
2023-05-06T10:19:50.246Z,31.14
2023-05-06T10:22:31.226Z,31.83
2023-05-06T10:25:27.866Z,32.32
2023-05-06T10:27:54.488Z,32.69
2023-05-06T10:30:22.396Z,33.23
2023-05-06T10:32:52.268Z,32.27
2023-05-06T10:35:42.549Z,32.85
2023-05-06T10:38:21.647Z,33.66
2023-05-06T10:40:49.673Z,33.21
2023-05-06T10:43:34.169Z,34.04
2023-05-06T10:46:01.569Z,33.93
2023-05-06T10:48:28.874Z,34.48
2023-05-06T10:51:21.591Z,34.77
2023-05-06T10:54:07.622Z,34.80
2023-05-06T10:56:36.175Z,34.90
2023-05-06T10:59:12.606Z,33.76
2023-05-06T11:01:41.642Z,33.63
2023-05-06T11:04:13.031Z,33.67
2023-05-06T11:06:46.325Z,33.20
2023-05-06T11:09:17.875Z,33.38
2023-05-06T11:11:52.326Z,33.15
2023-05-06T11:14:27.709Z,31.92
2023-05-06T11:16:56.907Z,31.82
2023-05-06T11:19:31.470Z,31.87
2023-05-06T11:22:00.174Z,31.18
2023-05-06T11:24:31.503Z,31.76
2023-05-06T11:27:00.463Z,32.58
2023-05-06T11:29:27.528Z,32.90
2023-05-06T11:31:54.151Z,32.06
2023-05-06T11:34:21.911Z,31.84
2023-05-06T11:36:55.337Z,32.52
2023-05-06T11:39:22.055Z,32.43
2023-05-06T11:41:48.649Z,32.81
2023-05-06T11:44:25.117Z,33.13
2023-05-06T11:46:52.765Z,34.07
2023-05-06T11:49:19.562Z,32.94
2023-05-06T11:51:47.729Z,30.67
2023-05-06T11:54:16.344Z,31.65
2023-05-06T11:56:51.285Z,33.27
2023-05-06T11:59:19.237Z,34.09
2023-05-06T12:01:46.488Z,34.51
2023-05-06T12:04:13.295Z,35.74
2023-05-06T12:06:40.261Z,36.07
2023-05-06T12:09:12.546Z,36.54
2023-05-06T12:11:41.998Z,36.04
2023-05-06T12:14:10.567Z,36.26
2023-05-06T12:16:37.930Z,36.28
2023-05-06T12:19:05.775Z,34.76
2023-05-06T12:21:36.883Z,34.48
2023-05-06T12:24:03.843Z,34.26
2023-05-06T12:26:43.081Z,34.99
2023-05-06T12:29:11.657Z,35.66
2023-05-06T12:31:39.138Z,36.32
2023-05-06T12:34:06.233Z,36.25
2023-05-06T12:36:33.103Z,35.98
2023-05-06T12:39:01.670Z,35.23
2023-05-06T12:41:39.759Z,34.55
2023-05-06T12:44:32.350Z,35.09
2023-05-06T12:47:21.890Z,35.87
2023-05-06T12:49:48.599Z,35.34
2023-05-06T12:52:16.018Z,34.45
2023-05-06T12:54:42.746Z,34.24
2023-05-06T12:57:09.427Z,34.91
2023-05-06T12:59:36.852Z,35.17
2023-05-06T13:02:05.647Z,36.78
2023-05-06T13:04:32.554Z,37.91
2023-05-06T13:06:59.320Z,37.40
2023-05-06T13:09:26.230Z,35.13
2023-05-06T13:11:53.393Z,35.34
2023-05-06T13:14:20.056Z,33.44
2023-05-06T13:16:46.941Z,33.44
2023-05-06T13:19:30.824Z,34.47
2023-05-06T13:22:00.362Z,34.05
2023-05-06T13:24:27.226Z,34.97
2023-05-06T13:26:53.872Z,35.88
2023-05-06T13:29:20.467Z,36.90
2023-05-06T13:31:46.973Z,37.44
2023-05-06T13:34:13.607Z,37.54
2023-05-06T13:36:40.399Z,37.56
2023-05-06T13:39:07.190Z,38.33
2023-05-06T13:41:34.330Z,39.03
2023-05-06T13:44:01.055Z,38.98
2023-05-06T13:46:27.689Z,39.16
2023-05-06T13:48:54.492Z,38.54
2023-05-06T13:51:21.099Z,38.66
2023-05-06T13:53:47.763Z,38.87
2023-05-06T13:56:14.817Z,39.23
2023-05-06T13:58:41.509Z,39.72
2023-05-06T14:01:08.133Z,39.88
2023-05-06T14:03:34.728Z,39.97
2023-05-06T14:06:03.380Z,39.61
2023-05-06T14:08:30.038Z,39.61
2023-05-06T14:10:56.664Z,39.24
2023-05-06T14:13:23.325Z,38.25
2023-05-06T14:15:49.977Z,37.24
2023-05-06T14:18:16.582Z,37.24
2023-05-06T14:20:43.130Z,37.36
2023-05-06T14:23:09.817Z,36.90
2023-05-06T14:25:36.495Z,37.06
2023-05-06T14:28:03.348Z,37.55
2023-05-06T14:30:31.080Z,38.18
2023-05-06T14:32:58.729Z,37.88
2023-05-06T14:35:25.692Z,37.05
2023-05-06T14:37:52.802Z,37.18
2023-05-06T14:40:19.495Z,36.73
2023-05-06T14:42:46.584Z,36.25
2023-05-06T14:45:13.769Z,36.37
2023-05-06T14:47:40.955Z,35.99
2023-05-06T14:50:10.627Z,35.97
2023-05-06T14:52:41.040Z,36.10
2023-05-06T14:55:09.671Z,36.19
2023-05-06T14:57:36.547Z,35.52
2023-05-06T15:00:04.890Z,35.41
2023-05-06T15:02:31.483Z,35.33
2023-05-06T15:04:58.237Z,35.29
2023-05-06T15:07:24.845Z,35.40
2023-05-06T15:09:52.168Z,35.88
2023-05-06T15:12:18.841Z,35.69
2023-05-06T15:14:45.344Z,35.33
2023-05-06T15:17:13.364Z,35.59
2023-05-06T15:19:39.925Z,35.34
2023-05-06T15:22:06.751Z,34.59
2023-05-06T15:24:33.351Z,33.96
2023-05-06T15:26:59.993Z,32.03
2023-05-06T15:29:26.665Z,32.66
2023-05-06T15:31:53.371Z,32.14
2023-05-06T15:34:20.780Z,31.93
2023-05-06T15:36:52.680Z,31.28
2023-05-06T15:39:20.592Z,31.03
2023-05-06T15:41:48.196Z,31.19
2023-05-06T15:44:16.306Z,30.55
2023-05-06T15:46:43.175Z,30.07
2023-05-06T15:49:42.577Z,30.06
2023-05-06T15:51:58.983Z,29.42
2023-05-06T15:54:27.438Z,29.22
2023-05-06T15:56:54.145Z,29.20
2023-05-06T15:59:20.932Z,29.06
2023-05-06T16:04:17.338Z,28.10
2023-05-06T16:06:46.105Z,28.44
2023-05-06T16:09:12.816Z,28.62
2023-05-06T16:11:39.429Z,28.19
2023-05-06T16:14:06.155Z,28.68
2023-05-06T16:16:33.011Z,28.60
2023-05-06T16:18:59.919Z,28.73
2023-05-06T16:21:27.297Z,28.23
2023-05-06T16:23:54.453Z,28.03
2023-05-06T16:26:21.326Z,28.61
2023-05-06T16:28:48.064Z,28.21
2023-05-06T16:31:14.926Z,27.99
2023-05-06T16:33:41.668Z,28.16
2023-05-06T16:36:10.474Z,28.33
2023-05-06T16:38:37.721Z,28.41
2023-05-06T16:41:04.406Z,28.39
2023-05-06T16:43:31.075Z,28.33
2023-05-06T16:45:57.970Z,28.70
2023-05-06T16:48:24.786Z,28.70
2023-05-06T16:50:51.938Z,29.23
2023-05-06T16:53:18.701Z,28.56
2023-05-06T16:55:49.572Z,29.01
2023-05-06T16:58:19.026Z,29.35
2023-05-06T17:00:45.834Z,28.68
2023-05-06T17:03:13.063Z,28.65
2023-05-06T17:05:40.019Z,28.03
2023-05-06T17:08:07.123Z,28.30
2023-05-06T17:10:33.948Z,28.12
2023-05-06T17:13:01.028Z,27.74
2023-05-06T17:15:28.790Z,28.03
2023-05-06T17:17:55.653Z,27.54
2023-05-06T17:20:22.988Z,27.37
2023-05-06T17:22:50.055Z,27.46
2023-05-06T17:25:16.869Z,27.08
2023-05-06T17:27:44.679Z,27.03
2023-05-06T17:30:15.160Z,26.92
2023-05-06T17:32:42.480Z,27.23
2023-05-06T17:35:09.952Z,27.01
2023-05-06T17:37:36.864Z,27.10
2023-05-06T17:40:05.231Z,27.27
2023-05-06T17:42:33.466Z,27.28
2023-05-06T17:45:00.044Z,27.13
2023-05-06T17:47:29.930Z,27.06
2023-05-06T17:49:56.956Z,26.88
2023-05-06T17:52:26.732Z,26.85
2023-05-06T17:55:23.376Z,26.74
2023-05-06T17:57:40.616Z,26.81
2023-05-06T18:00:07.874Z,26.80
2023-05-06T18:02:38.429Z,26.57
2023-05-06T18:05:06.348Z,26.45
2023-05-06T18:07:33.050Z,26.50
2023-05-06T18:09:59.840Z,26.57
2023-05-06T18:12:27.328Z,26.60
2023-05-06T18:14:55.322Z,26.46
2023-05-06T18:17:21.989Z,26.37
2023-05-06T18:19:48.620Z,26.30
2023-05-06T18:22:15.280Z,26.31
2023-05-06T18:24:41.864Z,26.33
2023-05-06T18:27:08.576Z,26.28
2023-05-06T18:29:35.579Z,26.14
2023-05-06T18:32:02.231Z,26.21
2023-05-06T18:34:28.997Z,26.18
2023-05-06T18:36:55.659Z,26.04
2023-05-06T18:39:25.338Z,25.98
2023-05-06T18:41:52.328Z,25.86
2023-05-06T18:44:18.961Z,25.76
2023-05-06T18:46:46.133Z,25.60
2023-05-06T18:49:14.041Z,25.39
2023-05-06T18:51:40.906Z,25.49
2023-05-06T18:54:07.591Z,25.33
2023-05-06T18:56:34.535Z,25.33
2023-05-06T18:59:01.273Z,25.23
2023-05-06T19:01:28.185Z,25.18
2023-05-06T19:03:55.245Z,25.22
2023-05-06T19:06:21.922Z,25.19
2023-05-06T19:08:48.551Z,25.15
2023-05-06T19:11:16.043Z,25.06
2023-05-06T19:13:46.414Z,24.99
2023-05-06T19:16:13.665Z,24.92
2023-05-06T19:18:40.223Z,25.04
2023-05-06T19:21:09.593Z,24.87
2023-05-06T19:23:36.241Z,24.81
2023-05-06T19:26:06.392Z,24.89
2023-05-06T19:28:34.192Z,24.80
2023-05-06T19:31:01.105Z,24.81
2023-05-06T19:33:27.744Z,24.55
2023-05-06T19:35:54.606Z,24.68
2023-05-06T19:38:21.320Z,24.82
2023-05-06T19:40:47.978Z,24.83
2023-05-06T19:43:14.786Z,24.75
2023-05-06T19:45:41.980Z,24.72
2023-05-06T19:48:08.652Z,24.57
2023-05-06T19:50:35.446Z,24.71
2023-05-06T19:53:02.630Z,24.55
2023-05-06T19:55:29.357Z,24.48
2023-05-06T19:57:56.995Z,24.50
2023-05-06T20:00:25.447Z,24.46
2023-05-06T20:02:52.275Z,24.50
2023-05-06T20:05:19.163Z,24.45
2023-05-06T20:07:46.057Z,24.38
2023-05-06T20:10:13.674Z,24.52
2023-05-06T20:12:41.203Z,24.46
2023-05-06T20:15:09.065Z,24.49
2023-05-06T20:17:35.995Z,24.42
2023-05-06T20:20:09.306Z,24.28
2023-05-06T20:22:40.244Z,24.10
2023-05-06T20:25:08.741Z,24.15
2023-05-06T20:27:36.050Z,24.05
2023-05-06T20:30:03.284Z,24.11
2023-05-06T20:32:31.298Z,24.02
2023-05-06T20:34:58.273Z,24.00
2023-05-06T20:37:25.499Z,24.03
2023-05-06T20:39:52.298Z,24.09
2023-05-06T20:42:18.983Z,24.04
2023-05-06T20:44:45.855Z,23.87
2023-05-06T20:47:12.530Z,22.95
2023-05-06T20:49:39.423Z,22.80
2023-05-06T20:52:07.798Z,22.85
2023-05-06T20:54:34.629Z,22.79
2023-05-06T20:57:02.509Z,22.67
2023-05-06T20:59:29.577Z,22.30
2023-05-06T21:01:56.509Z,22.22
2023-05-06T21:04:23.273Z,22.29
2023-05-06T21:06:50.049Z,22.42
2023-05-06T21:09:17.719Z,22.25
2023-05-06T21:11:45.178Z,22.28
2023-05-06T21:14:12.430Z,22.33
2023-05-06T21:16:39.987Z,22.04
2023-05-06T21:19:07.272Z,22.15
2023-05-06T21:21:34.319Z,21.97
2023-05-06T21:24:01.189Z,22.11
2023-05-06T21:26:27.848Z,22.04
2023-05-06T21:28:54.581Z,21.74
2023-05-06T21:31:23.916Z,21.90
2023-05-06T21:33:54.839Z,21.84
2023-05-06T21:36:22.111Z,21.64
2023-05-06T21:39:00.139Z,21.39
2023-05-06T21:41:27.017Z,20.29
2023-05-06T21:43:53.648Z,20.35
2023-05-06T21:46:20.325Z,20.02
2023-05-06T21:48:47.014Z,19.82
2023-05-06T21:51:13.604Z,19.63
2023-05-06T21:53:40.160Z,19.70
2023-05-06T21:56:06.843Z,19.66
2023-05-06T21:58:33.573Z,19.83
2023-05-06T22:01:00.208Z,19.82
2023-05-06T22:03:27.687Z,19.89
2023-05-06T22:05:54.398Z,19.79
2023-05-06T22:08:20.948Z,19.83
2023-05-06T22:10:47.533Z,19.86
2023-05-06T22:13:14.198Z,19.65
2023-05-06T22:15:41.723Z,19.29
2023-05-06T22:18:08.761Z,19.21
2023-05-06T22:20:37.051Z,19.22
2023-05-06T22:23:04.053Z,18.93
2023-05-06T22:25:30.713Z,18.84
2023-05-06T22:27:57.681Z,18.85
2023-05-06T22:30:24.364Z,18.79
2023-05-06T22:32:51.166Z,18.86
2023-05-06T22:35:17.881Z,18.73
2023-05-06T22:37:45.246Z,18.67
2023-05-06T22:40:12.568Z,18.45
2023-05-06T22:42:39.175Z,18.57
2023-05-06T22:45:06.901Z,18.33
2023-05-06T22:47:33.545Z,18.40
2023-05-06T22:50:00.220Z,18.42
2023-05-06T22:52:26.935Z,18.84
2023-05-06T22:54:54.090Z,18.91
2023-05-06T22:57:23.175Z,18.97
2023-05-06T22:59:49.916Z,18.71
2023-05-06T23:02:16.594Z,18.98
2023-05-06T23:04:43.228Z,18.90
2023-05-06T23:07:09.907Z,18.83
2023-05-06T23:09:36.573Z,18.93
2023-05-06T23:12:03.429Z,18.65
2023-05-06T23:14:30.009Z,18.53
2023-05-06T23:16:56.671Z,18.62
2023-05-06T23:19:23.390Z,18.80
2023-05-06T23:21:49.997Z,18.85
2023-05-06T23:24:16.635Z,18.63
2023-05-06T23:26:43.206Z,18.89
2023-05-06T23:29:10.100Z,18.63
2023-05-06T23:31:36.700Z,18.57
2023-05-06T23:34:03.379Z,18.84
2023-05-06T23:36:30.033Z,18.85
2023-05-06T23:38:56.610Z,18.70
2023-05-06T23:41:23.544Z,18.59
2023-05-06T23:43:50.359Z,18.55
2023-05-06T23:46:17.115Z,18.34
2023-05-06T23:48:43.799Z,18.32
2023-05-06T23:51:10.585Z,18.54
2023-05-06T23:53:37.329Z,18.57
2023-05-06T23:56:04.296Z,18.56
2023-05-06T23:58:30.951Z,18.45
